sensor_id;sensor_type;location;lat;lon;timestamp;P1;durP1;ratioP1;P2;durP2;ratioP2
70981;SDS011;58640;51.320;9.456;2022-08-01T00:00:31;3.33;;;1.98;;
70981;SDS011;58640;51.320;9.456;2022-08-01T00:02:56;3.22;;;2.28;;
70981;SDS011;58640;51.320;9.456;2022-08-01T00:05:21;2.80;;;2.25;;
70981;SDS011;58640;51.320;9.456;2022-08-01T00:07:47;3.67;;;2.45;;
70981;SDS011;58640;51.320;9.456;2022-08-01T00:10:13;2.15;;;1.95;;
70981;SDS011;58640;51.320;9.456;2022-08-01T00:12:40;2.35;;;2.10;;
70981;SDS011;58640;51.320;9.456;2022-08-01T00:15:07;2.53;;;2.33;;
70981;SDS011;58640;51.320;9.456;2022-08-01T00:17:34;2.58;;;2.30;;
70981;SDS011;58640;51.320;9.456;2022-08-01T00:20:00;2.40;;;2.20;;
70981;SDS011;58640;51.320;9.456;2022-08-01T00:22:27;2.80;;;2.60;;
70981;SDS011;58640;51.320;9.456;2022-08-01T00:24:52;2.55;;;2.35;;
70981;SDS011;58640;51.320;9.456;2022-08-01T00:27:18;3.72;;;2.42;;
70981;SDS011;58640;51.320;9.456;2022-08-01T00:29:43;2.40;;;2.08;;
70981;SDS011;58640;51.320;9.456;2022-08-01T00:32:08;3.22;;;2.50;;
70981;SDS011;58640;51.320;9.456;2022-08-01T00:34:34;4.18;;;2.90;;
70981;SDS011;58640;51.320;9.456;2022-08-01T00:36:59;4.75;;;2.97;;
70981;SDS011;58640;51.320;9.456;2022-08-01T00:39:25;3.15;;;2.47;;
70981;SDS011;58640;51.320;9.456;2022-08-01T00:41:50;6.88;;;2.40;;
70981;SDS011;58640;51.320;9.456;2022-08-01T00:44:15;3.38;;;2.60;;
70981;SDS011;58640;51.320;9.456;2022-08-01T00:46:41;5.15;;;2.88;;
70981;SDS011;58640;51.320;9.456;2022-08-01T00:49:06;4.20;;;2.55;;
70981;SDS011;58640;51.320;9.456;2022-08-01T00:51:32;3.72;;;2.42;;
70981;SDS011;58640;51.320;9.456;2022-08-01T00:53:58;4.53;;;2.92;;
70981;SDS011;58640;51.320;9.456;2022-08-01T00:56:24;4.18;;;2.65;;
70981;SDS011;58640;51.320;9.456;2022-08-01T00:58:50;2.20;;;2.00;;
70981;SDS011;58640;51.320;9.456;2022-08-01T01:01:16;3.15;;;2.67;;
70981;SDS011;58640;51.320;9.456;2022-08-01T01:03:42;3.30;;;2.97;;
70981;SDS011;58640;51.320;9.456;2022-08-01T01:06:13;2.97;;;2.67;;
70981;SDS011;58640;51.320;9.456;2022-08-01T01:09:24;3.97;;;2.60;;
70981;SDS011;58640;51.320;9.456;2022-08-01T01:14:33;2.83;;;2.47;;
70981;SDS011;58640;51.320;9.456;2022-08-01T01:17:03;2.20;;;2.10;;
70981;SDS011;58640;51.320;9.456;2022-08-01T01:19:33;3.55;;;3.10;;
70981;SDS011;58640;51.320;9.456;2022-08-01T01:31:13;3.63;;;2.40;;
70981;SDS011;58640;51.320;9.456;2022-08-01T01:33:44;6.28;;;2.80;;
70981;SDS011;58640;51.320;9.456;2022-08-01T01:36:10;3.70;;;2.47;;
70981;SDS011;58640;51.320;9.456;2022-08-01T01:38:42;3.80;;;2.50;;
70981;SDS011;58640;51.320;9.456;2022-08-01T01:41:09;4.65;;;3.10;;
70981;SDS011;58640;51.320;9.456;2022-08-01T01:43:37;3.95;;;2.53;;
70981;SDS011;58640;51.320;9.456;2022-08-01T01:46:04;2.78;;;2.40;;
70981;SDS011;58640;51.320;9.456;2022-08-01T01:48:31;4.07;;;3.20;;
70981;SDS011;58640;51.320;9.456;2022-08-01T01:50:59;3.33;;;3.03;;
70981;SDS011;58640;51.320;9.456;2022-08-01T01:53:26;3.60;;;3.30;;
70981;SDS011;58640;51.320;9.456;2022-08-01T01:55:53;3.55;;;3.20;;
70981;SDS011;58640;51.320;9.456;2022-08-01T01:58:22;5.03;;;4.00;;
70981;SDS011;58640;51.320;9.456;2022-08-01T02:00:48;5.43;;;3.47;;
70981;SDS011;58640;51.320;9.456;2022-08-01T02:03:16;5.30;;;3.45;;
70981;SDS011;58640;51.320;9.456;2022-08-01T02:05:43;8.48;;;4.00;;
70981;SDS011;58640;51.320;9.456;2022-08-01T02:08:09;3.83;;;3.30;;
70981;SDS011;58640;51.320;9.456;2022-08-01T02:10:37;4.30;;;4.00;;
70981;SDS011;58640;51.320;9.456;2022-08-01T02:13:05;5.22;;;4.63;;
70981;SDS011;58640;51.320;9.456;2022-08-01T02:15:31;7.65;;;4.97;;
70981;SDS011;58640;51.320;9.456;2022-08-01T02:17:59;4.65;;;4.22;;
70981;SDS011;58640;51.320;9.456;2022-08-01T02:20:28;6.20;;;4.15;;
70981;SDS011;58640;51.320;9.456;2022-08-01T02:23:03;4.88;;;4.15;;
70981;SDS011;58640;51.320;9.456;2022-08-01T02:25:34;5.93;;;4.57;;
70981;SDS011;58640;51.320;9.456;2022-08-01T02:28:07;4.40;;;3.92;;
70981;SDS011;58640;51.320;9.456;2022-08-01T02:30:38;6.25;;;4.35;;
70981;SDS011;58640;51.320;9.456;2022-08-01T02:33:51;7.03;;;4.70;;
70981;SDS011;58640;51.320;9.456;2022-08-01T02:36:23;5.10;;;4.32;;
70981;SDS011;58640;51.320;9.456;2022-08-01T02:38:51;5.82;;;4.50;;
70981;SDS011;58640;51.320;9.456;2022-08-01T02:41:20;6.78;;;4.88;;
70981;SDS011;58640;51.320;9.456;2022-08-01T02:43:48;6.00;;;5.00;;
70981;SDS011;58640;51.320;9.456;2022-08-01T02:46:16;5.90;;;5.30;;
70981;SDS011;58640;51.320;9.456;2022-08-01T02:48:47;8.23;;;4.60;;
70981;SDS011;58640;51.320;9.456;2022-08-01T02:51:15;5.45;;;4.60;;
70981;SDS011;58640;51.320;9.456;2022-08-01T02:53:42;6.72;;;4.65;;
70981;SDS011;58640;51.320;9.456;2022-08-01T02:56:08;8.43;;;5.00;;
70981;SDS011;58640;51.320;9.456;2022-08-01T02:58:36;6.32;;;5.70;;
70981;SDS011;58640;51.320;9.456;2022-08-01T03:01:04;9.38;;;4.53;;
70981;SDS011;58640;51.320;9.456;2022-08-01T03:03:32;6.45;;;5.80;;
70981;SDS011;58640;51.320;9.456;2022-08-01T03:05:58;6.50;;;5.70;;
70981;SDS011;58640;51.320;9.456;2022-08-01T03:08:26;7.68;;;6.05;;
70981;SDS011;58640;51.320;9.456;2022-08-01T03:10:55;5.18;;;3.92;;
70981;SDS011;58640;51.320;9.456;2022-08-01T03:13:24;6.97;;;5.15;;
70981;SDS011;58640;51.320;9.456;2022-08-01T03:15:52;6.88;;;4.78;;
70981;SDS011;58640;51.320;9.456;2022-08-01T03:18:20;7.60;;;4.45;;
70981;SDS011;58640;51.320;9.456;2022-08-01T03:20:49;10.18;;;5.20;;
70981;SDS011;58640;51.320;9.456;2022-08-01T03:23:17;5.40;;;4.90;;
70981;SDS011;58640;51.320;9.456;2022-08-01T03:25:45;8.18;;;4.82;;
70981;SDS011;58640;51.320;9.456;2022-08-01T03:28:14;6.22;;;5.03;;
70981;SDS011;58640;51.320;9.456;2022-08-01T03:30:41;9.48;;;5.32;;
70981;SDS011;58640;51.320;9.456;2022-08-01T03:33:07;11.07;;;5.22;;
70981;SDS011;58640;51.320;9.456;2022-08-01T03:35:34;7.75;;;5.45;;
70981;SDS011;58640;51.320;9.456;2022-08-01T03:38:04;6.35;;;5.82;;
70981;SDS011;58640;51.320;9.456;2022-08-01T03:43:11;9.75;;;5.95;;
70981;SDS011;58640;51.320;9.456;2022-08-01T03:45:41;9.18;;;5.88;;
70981;SDS011;58640;51.320;9.456;2022-08-01T03:48:14;8.18;;;6.13;;
70981;SDS011;58640;51.320;9.456;2022-08-01T03:50:43;8.95;;;5.97;;
70981;SDS011;58640;51.320;9.456;2022-08-01T03:53:13;7.65;;;5.45;;
70981;SDS011;58640;51.320;9.456;2022-08-01T03:55:39;8.57;;;4.85;;
70981;SDS011;58640;51.320;9.456;2022-08-01T03:58:06;8.75;;;5.57;;
70981;SDS011;58640;51.320;9.456;2022-08-01T04:00:33;8.43;;;5.53;;
70981;SDS011;58640;51.320;9.456;2022-08-01T04:03:03;8.63;;;6.07;;
70981;SDS011;58640;51.320;9.456;2022-08-01T04:05:29;6.50;;;4.72;;
70981;SDS011;58640;51.320;9.456;2022-08-01T04:07:56;8.50;;;5.28;;
70981;SDS011;58640;51.320;9.456;2022-08-01T04:10:22;5.95;;;4.68;;
70981;SDS011;58640;51.320;9.456;2022-08-01T04:12:48;6.82;;;5.00;;
70981;SDS011;58640;51.320;9.456;2022-08-01T04:15:14;6.45;;;4.95;;
70981;SDS011;58640;51.320;9.456;2022-08-01T04:17:40;6.45;;;4.38;;
70981;SDS011;58640;51.320;9.456;2022-08-01T04:20:05;6.97;;;5.22;;
70981;SDS011;58640;51.320;9.456;2022-08-01T04:22:31;13.38;;;5.68;;
70981;SDS011;58640;51.320;9.456;2022-08-01T04:24:57;4.65;;;3.60;;
70981;SDS011;58640;51.320;9.456;2022-08-01T04:27:27;4.70;;;2.80;;
70981;SDS011;58640;51.320;9.456;2022-08-01T04:29:56;5.78;;;3.30;;
70981;SDS011;58640;51.320;9.456;2022-08-01T04:32:23;4.95;;;3.05;;
70981;SDS011;58640;51.320;9.456;2022-08-01T04:34:52;2.42;;;2.22;;
70981;SDS011;58640;51.320;9.456;2022-08-01T04:37:20;3.00;;;1.85;;
70981;SDS011;58640;51.320;9.456;2022-08-01T04:39:48;5.55;;;1.80;;
70981;SDS011;58640;51.320;9.456;2022-08-01T04:42:16;1.80;;;1.65;;
70981;SDS011;58640;51.320;9.456;2022-08-01T04:44:42;2.83;;;1.88;;
70981;SDS011;58640;51.320;9.456;2022-08-01T04:47:08;3.60;;;1.90;;
70981;SDS011;58640;51.320;9.456;2022-08-01T04:49:34;3.90;;;1.80;;
70981;SDS011;58640;51.320;9.456;2022-08-01T04:52:00;1.80;;;1.70;;
70981;SDS011;58640;51.320;9.456;2022-08-01T04:54:27;2.28;;;1.70;;
70981;SDS011;58640;51.320;9.456;2022-08-01T04:56:53;1.88;;;1.60;;
70981;SDS011;58640;51.320;9.456;2022-08-01T04:59:26;2.45;;;2.10;;
70981;SDS011;58640;51.320;9.456;2022-08-01T05:02:04;1.90;;;1.67;;
70981;SDS011;58640;51.320;9.456;2022-08-01T05:04:30;1.77;;;1.67;;
70981;SDS011;58640;51.320;9.456;2022-08-01T05:06:56;4.68;;;1.70;;
70981;SDS011;58640;51.320;9.456;2022-08-01T05:09:21;2.85;;;2.40;;
70981;SDS011;58640;51.320;9.456;2022-08-01T05:11:46;2.35;;;2.15;;
70981;SDS011;58640;51.320;9.456;2022-08-01T05:14:12;2.92;;;2.28;;
70981;SDS011;58640;51.320;9.456;2022-08-01T05:16:37;2.47;;;2.28;;
70981;SDS011;58640;51.320;9.456;2022-08-01T05:19:02;3.05;;;2.67;;
70981;SDS011;58640;51.320;9.456;2022-08-01T05:21:28;6.47;;;3.65;;
70981;SDS011;58640;51.320;9.456;2022-08-01T05:23:53;3.47;;;3.00;;
70981;SDS011;58640;51.320;9.456;2022-08-01T05:26:18;3.88;;;2.60;;
70981;SDS011;58640;51.320;9.456;2022-08-01T05:28:44;2.92;;;2.47;;
70981;SDS011;58640;51.320;9.456;2022-08-01T05:31:09;6.20;;;2.78;;
70981;SDS011;58640;51.320;9.456;2022-08-01T05:33:35;4.85;;;2.60;;
70981;SDS011;58640;51.320;9.456;2022-08-01T05:36:00;5.32;;;2.70;;
70981;SDS011;58640;51.320;9.456;2022-08-01T05:38:25;3.45;;;2.42;;
70981;SDS011;58640;51.320;9.456;2022-08-01T05:40:51;2.33;;;2.13;;
70981;SDS011;58640;51.320;9.456;2022-08-01T05:43:16;8.15;;;2.70;;
70981;SDS011;58640;51.320;9.456;2022-08-01T05:45:41;3.85;;;2.92;;
70981;SDS011;58640;51.320;9.456;2022-08-01T05:48:07;3.05;;;2.67;;
70981;SDS011;58640;51.320;9.456;2022-08-01T05:50:32;3.58;;;2.65;;
70981;SDS011;58640;51.320;9.456;2022-08-01T05:52:58;4.68;;;2.80;;
70981;SDS011;58640;51.320;9.456;2022-08-01T05:55:23;2.72;;;2.20;;
70981;SDS011;58640;51.320;9.456;2022-08-01T05:57:48;5.53;;;2.53;;
70981;SDS011;58640;51.320;9.456;2022-08-01T06:00:14;5.70;;;3.10;;
70981;SDS011;58640;51.320;9.456;2022-08-01T06:02:41;4.05;;;2.35;;
70981;SDS011;58640;51.320;9.456;2022-08-01T06:05:08;4.35;;;3.03;;
70981;SDS011;58640;51.320;9.456;2022-08-01T06:07:34;6.28;;;3.33;;
70981;SDS011;58640;51.320;9.456;2022-08-01T06:10:00;5.18;;;2.75;;
70981;SDS011;58640;51.320;9.456;2022-08-01T06:12:25;4.13;;;2.80;;
70981;SDS011;58640;51.320;9.456;2022-08-01T06:14:50;5.63;;;2.75;;
70981;SDS011;58640;51.320;9.456;2022-08-01T06:17:16;4.85;;;3.33;;
70981;SDS011;58640;51.320;9.456;2022-08-01T06:19:41;4.72;;;2.88;;
70981;SDS011;58640;51.320;9.456;2022-08-01T06:22:07;3.10;;;2.80;;
70981;SDS011;58640;51.320;9.456;2022-08-01T06:24:32;3.78;;;2.40;;
70981;SDS011;58640;51.320;9.456;2022-08-01T06:26:57;2.85;;;2.20;;
70981;SDS011;58640;51.320;9.456;2022-08-01T06:29:23;3.22;;;2.33;;
70981;SDS011;58640;51.320;9.456;2022-08-01T06:31:49;2.70;;;2.17;;
70981;SDS011;58640;51.320;9.456;2022-08-01T06:34:14;3.17;;;2.88;;
70981;SDS011;58640;51.320;9.456;2022-08-01T06:36:40;2.30;;;2.10;;
70981;SDS011;58640;51.320;9.456;2022-08-01T06:39:06;4.00;;;2.70;;
70981;SDS011;58640;51.320;9.456;2022-08-01T06:41:31;2.13;;;1.95;;
70981;SDS011;58640;51.320;9.456;2022-08-01T06:43:57;2.88;;;2.15;;
70981;SDS011;58640;51.320;9.456;2022-08-01T06:46:22;2.47;;;1.65;;
70981;SDS011;58640;51.320;9.456;2022-08-01T06:48:48;2.38;;;1.58;;
70981;SDS011;58640;51.320;9.456;2022-08-01T06:51:13;4.10;;;1.90;;
70981;SDS011;58640;51.320;9.456;2022-08-01T06:53:41;2.50;;;1.83;;
70981;SDS011;58640;51.320;9.456;2022-08-01T06:56:07;1.75;;;1.50;;
70981;SDS011;58640;51.320;9.456;2022-08-01T06:58:33;1.73;;;1.60;;
70981;SDS011;58640;51.320;9.456;2022-08-01T07:00:59;2.50;;;1.65;;
70981;SDS011;58640;51.320;9.456;2022-08-01T07:03:25;2.13;;;1.80;;
70981;SDS011;58640;51.320;9.456;2022-08-01T07:05:52;2.97;;;2.00;;
70981;SDS011;58640;51.320;9.456;2022-08-01T07:08:17;2.60;;;1.60;;
70981;SDS011;58640;51.320;9.456;2022-08-01T07:10:43;2.45;;;1.55;;
70981;SDS011;58640;51.320;9.456;2022-08-01T07:13:08;1.48;;;1.38;;
70981;SDS011;58640;51.320;9.456;2022-08-01T07:15:33;2.25;;;1.50;;
70981;SDS011;58640;51.320;9.456;2022-08-01T07:17:59;1.42;;;1.27;;
70981;SDS011;58640;51.320;9.456;2022-08-01T07:20:28;1.88;;;1.30;;
70981;SDS011;58640;51.320;9.456;2022-08-01T07:22:54;1.33;;;1.08;;
70981;SDS011;58640;51.320;9.456;2022-08-01T07:25:19;1.92;;;1.10;;
70981;SDS011;58640;51.320;9.456;2022-08-01T07:27:44;1.73;;;1.60;;
70981;SDS011;58640;51.320;9.456;2022-08-01T07:30:10;1.10;;;1.10;;
70981;SDS011;58640;51.320;9.456;2022-08-01T07:32:36;1.55;;;1.30;;
70981;SDS011;58640;51.320;9.456;2022-08-01T07:35:02;1.80;;;1.25;;
70981;SDS011;58640;51.320;9.456;2022-08-01T07:37:28;3.70;;;1.40;;
70981;SDS011;58640;51.320;9.456;2022-08-01T07:39:53;0.95;;;0.95;;
70981;SDS011;58640;51.320;9.456;2022-08-01T07:42:19;1.10;;;1.10;;
70981;SDS011;58640;51.320;9.456;2022-08-01T07:44:44;1.58;;;1.20;;
70981;SDS011;58640;51.320;9.456;2022-08-01T07:47:09;2.88;;;1.10;;
70981;SDS011;58640;51.320;9.456;2022-08-01T07:49:35;1.50;;;1.40;;
70981;SDS011;58640;51.320;9.456;2022-08-01T07:52:00;1.40;;;1.30;;
70981;SDS011;58640;51.320;9.456;2022-08-01T07:54:26;1.30;;;1.20;;
70981;SDS011;58640;51.320;9.456;2022-08-01T07:56:52;1.88;;;1.35;;
70981;SDS011;58640;51.320;9.456;2022-08-01T07:59:18;2.38;;;1.20;;
70981;SDS011;58640;51.320;9.456;2022-08-01T08:01:47;1.58;;;1.48;;
70981;SDS011;58640;51.320;9.456;2022-08-01T08:04:14;2.28;;;1.08;;
70981;SDS011;58640;51.320;9.456;2022-08-01T08:06:39;1.17;;;1.17;;
70981;SDS011;58640;51.320;9.456;2022-08-01T08:09:06;1.65;;;1.55;;
70981;SDS011;58640;51.320;9.456;2022-08-01T08:11:31;1.55;;;0.95;;
70981;SDS011;58640;51.320;9.456;2022-08-01T08:13:57;1.88;;;1.00;;
70981;SDS011;58640;51.320;9.456;2022-08-01T08:16:22;3.17;;;1.60;;
70981;SDS011;58640;51.320;9.456;2022-08-01T08:18:47;1.88;;;1.45;;
70981;SDS011;58640;51.320;9.456;2022-08-01T08:21:13;2.55;;;1.65;;
70981;SDS011;58640;51.320;9.456;2022-08-01T08:23:38;1.88;;;1.52;;
70981;SDS011;58640;51.320;9.456;2022-08-01T08:26:22;1.90;;;1.48;;
70981;SDS011;58640;51.320;9.456;2022-08-01T08:28:48;2.78;;;1.60;;
70981;SDS011;58640;51.320;9.456;2022-08-01T08:31:14;2.22;;;1.65;;
70981;SDS011;58640;51.320;9.456;2022-08-01T08:33:39;2.05;;;1.83;;
70981;SDS011;58640;51.320;9.456;2022-08-01T08:36:04;4.47;;;1.77;;
70981;SDS011;58640;51.320;9.456;2022-08-01T08:38:30;3.88;;;2.13;;
70981;SDS011;58640;51.320;9.456;2022-08-01T08:40:56;1.95;;;1.85;;
70981;SDS011;58640;51.320;9.456;2022-08-01T08:43:21;3.08;;;1.73;;
70981;SDS011;58640;51.320;9.456;2022-08-01T08:45:49;2.90;;;2.70;;
70981;SDS011;58640;51.320;9.456;2022-08-01T08:48:15;1.65;;;1.55;;
70981;SDS011;58640;51.320;9.456;2022-08-01T08:50:42;2.47;;;2.00;;
70981;SDS011;58640;51.320;9.456;2022-08-01T08:53:09;2.47;;;1.35;;
70981;SDS011;58640;51.320;9.456;2022-08-01T08:55:35;1.35;;;1.25;;
70981;SDS011;58640;51.320;9.456;2022-08-01T08:58:02;2.30;;;1.50;;
70981;SDS011;58640;51.320;9.456;2022-08-01T09:00:30;1.42;;;1.27;;
70981;SDS011;58640;51.320;9.456;2022-08-01T09:02:56;1.48;;;1.38;;
70981;SDS011;58640;51.320;9.456;2022-08-01T09:05:22;3.95;;;1.40;;
70981;SDS011;58640;51.320;9.456;2022-08-01T09:07:51;6.55;;;1.50;;
70981;SDS011;58640;51.320;9.456;2022-08-01T09:10:19;1.33;;;1.23;;
70981;SDS011;58640;51.320;9.456;2022-08-01T09:18:03;1.70;;;1.23;;
70981;SDS011;58640;51.320;9.456;2022-08-01T09:20:28;1.65;;;1.50;;
70981;SDS011;58640;51.320;9.456;2022-08-01T09:22:54;1.23;;;1.13;;
70981;SDS011;58640;51.320;9.456;2022-08-01T09:25:19;1.92;;;1.48;;
70981;SDS011;58640;51.320;9.456;2022-08-01T09:27:45;1.45;;;1.10;;
70981;SDS011;58640;51.320;9.456;2022-08-01T09:30:11;1.50;;;1.40;;
70981;SDS011;58640;51.320;9.456;2022-08-01T09:32:57;1.38;;;1.02;;
70981;SDS011;58640;51.320;9.456;2022-08-01T09:35:28;1.33;;;1.23;;
70981;SDS011;58640;51.320;9.456;2022-08-01T09:38:14;3.70;;;1.30;;
70981;SDS011;58640;51.320;9.456;2022-08-01T09:40:49;1.60;;;1.20;;
70981;SDS011;58640;51.320;9.456;2022-08-01T09:43:16;2.80;;;1.40;;
70981;SDS011;58640;51.320;9.456;2022-08-01T09:45:42;1.70;;;1.40;;
70981;SDS011;58640;51.320;9.456;2022-08-01T09:48:08;2.80;;;1.15;;
70981;SDS011;58640;51.320;9.456;2022-08-01T09:50:41;2.42;;;1.00;;
70981;SDS011;58640;51.320;9.456;2022-08-01T09:53:08;1.77;;;1.30;;
70981;SDS011;58640;51.320;9.456;2022-08-01T09:55:35;1.77;;;1.67;;
70981;SDS011;58640;51.320;9.456;2022-08-01T09:58:00;2.17;;;1.52;;
70981;SDS011;58640;51.320;9.456;2022-08-01T10:00:26;1.60;;;1.50;;
70981;SDS011;58640;51.320;9.456;2022-08-01T10:02:52;1.70;;;1.60;;
70981;SDS011;58640;51.320;9.456;2022-08-01T10:05:18;2.33;;;1.30;;
70981;SDS011;58640;51.320;9.456;2022-08-01T10:07:56;1.55;;;1.45;;
70981;SDS011;58640;51.320;9.456;2022-08-01T10:10:23;1.60;;;1.50;;
70981;SDS011;58640;51.320;9.456;2022-08-01T10:12:49;1.35;;;1.35;;
70981;SDS011;58640;51.320;9.456;2022-08-01T10:15:16;4.10;;;1.48;;
70981;SDS011;58640;51.320;9.456;2022-08-01T10:17:46;1.75;;;1.40;;
70981;SDS011;58640;51.320;9.456;2022-08-01T10:20:21;1.73;;;1.58;;
70981;SDS011;58640;51.320;9.456;2022-08-01T10:22:49;0.98;;;0.98;;
70981;SDS011;58640;51.320;9.456;2022-08-01T10:25:19;1.33;;;1.27;;
70981;SDS011;58640;51.320;9.456;2022-08-01T10:27:45;1.63;;;1.52;;
70981;SDS011;58640;51.320;9.456;2022-08-01T10:30:17;1.52;;;1.40;;
70981;SDS011;58640;51.320;9.456;2022-08-01T10:32:42;1.75;;;1.58;;
70981;SDS011;58640;51.320;9.456;2022-08-01T10:35:11;4.57;;;0.95;;
70981;SDS011;58640;51.320;9.456;2022-08-01T10:37:42;1.92;;;0.90;;
70981;SDS011;58640;51.320;9.456;2022-08-01T10:40:11;1.00;;;0.90;;
70981;SDS011;58640;51.320;9.456;2022-08-01T10:42:39;0.80;;;0.63;;
70981;SDS011;58640;51.320;9.456;2022-08-01T10:45:06;1.00;;;0.80;;
70981;SDS011;58640;51.320;9.456;2022-08-01T10:47:51;3.17;;;0.60;;
70981;SDS011;58640;51.320;9.456;2022-08-01T10:50:29;0.50;;;0.30;;
70981;SDS011;58640;51.320;9.456;2022-08-01T10:53:12;0.30;;;0.30;;
70981;SDS011;58640;51.320;9.456;2022-08-01T10:58:11;0.40;;;0.30;;
70981;SDS011;58640;51.320;9.456;2022-08-01T11:00:36;0.30;;;0.30;;
70981;SDS011;58640;51.320;9.456;2022-08-01T11:03:02;0.30;;;0.30;;
70981;SDS011;58640;51.320;9.456;2022-08-01T11:05:35;0.75;;;0.30;;
70981;SDS011;58640;51.320;9.456;2022-08-01T11:08:06;0.20;;;0.20;;
70981;SDS011;58640;51.320;9.456;2022-08-01T11:10:40;0.40;;;0.20;;
70981;SDS011;58640;51.320;9.456;2022-08-01T11:13:09;0.20;;;0.20;;
70981;SDS011;58640;51.320;9.456;2022-08-01T11:15:36;1.73;;;0.20;;
70981;SDS011;58640;51.320;9.456;2022-08-01T11:18:47;0.22;;;0.15;;
70981;SDS011;58640;51.320;9.456;2022-08-01T11:20:59;0.93;;;0.50;;
70981;SDS011;58640;51.320;9.456;2022-08-01T11:23:29;1.17;;;0.60;;
70981;SDS011;58640;51.320;9.456;2022-08-01T11:28:25;2.38;;;0.20;;
70981;SDS011;58640;51.320;9.456;2022-08-01T11:30:53;1.80;;;0.30;;
70981;SDS011;58640;51.320;9.456;2022-08-01T11:46:20;0.52;;;0.10;;
70981;SDS011;58640;51.320;9.456;2022-08-01T11:54:26;0.32;;;0.30;;
70981;SDS011;58640;51.320;9.456;2022-08-01T11:57:05;0.30;;;0.30;;
70981;SDS011;58640;51.320;9.456;2022-08-01T11:59:51;0.80;;;0.80;;
70981;SDS011;58640;51.320;9.456;2022-08-01T12:02:26;0.30;;;0.30;;
70981;SDS011;58640;51.320;9.456;2022-08-01T12:04:56;0.30;;;0.20;;
70981;SDS011;58640;51.320;9.456;2022-08-01T12:07:26;0.30;;;0.30;;
70981;SDS011;58640;51.320;9.456;2022-08-01T12:09:57;1.13;;;0.30;;
70981;SDS011;58640;51.320;9.456;2022-08-01T12:12:25;0.30;;;0.30;;
70981;SDS011;58640;51.320;9.456;2022-08-01T12:14:52;0.40;;;0.40;;
70981;SDS011;58640;51.320;9.456;2022-08-01T12:17:38;0.47;;;0.45;;
70981;SDS011;58640;51.320;9.456;2022-08-01T12:20:11;0.55;;;0.40;;
70981;SDS011;58640;51.320;9.456;2022-08-01T12:22:44;0.40;;;0.40;;
70981;SDS011;58640;51.320;9.456;2022-08-01T12:25:10;0.40;;;0.40;;
70981;SDS011;58640;51.320;9.456;2022-08-01T12:27:38;0.70;;;0.35;;
70981;SDS011;58640;51.320;9.456;2022-08-01T12:30:05;1.08;;;0.30;;
70981;SDS011;58640;51.320;9.456;2022-08-01T12:32:33;2.60;;;0.30;;
70981;SDS011;58640;51.320;9.456;2022-08-01T12:35:08;0.52;;;0.40;;
70981;SDS011;58640;51.320;9.456;2022-08-01T12:37:36;0.45;;;0.45;;
70981;SDS011;58640;51.320;9.456;2022-08-01T12:40:09;2.85;;;0.60;;
70981;SDS011;58640;51.320;9.456;2022-08-01T12:42:36;0.68;;;0.68;;
70981;SDS011;58640;51.320;9.456;2022-08-01T12:45:04;1.23;;;0.60;;
70981;SDS011;58640;51.320;9.456;2022-08-01T12:47:32;0.55;;;0.55;;
70981;SDS011;58640;51.320;9.456;2022-08-01T12:49:58;0.95;;;0.68;;
70981;SDS011;58640;51.320;9.456;2022-08-01T12:52:23;0.80;;;0.60;;
70981;SDS011;58640;51.320;9.456;2022-08-01T12:55:05;1.77;;;0.90;;
70981;SDS011;58640;51.320;9.456;2022-08-01T12:57:43;1.27;;;0.70;;
70981;SDS011;58640;51.320;9.456;2022-08-01T13:02:44;2.13;;;1.92;;
70981;SDS011;58640;51.320;9.456;2022-08-01T13:05:11;0.98;;;0.88;;
70981;SDS011;58640;51.320;9.456;2022-08-01T13:07:47;0.85;;;0.85;;
70981;SDS011;58640;51.320;9.456;2022-08-01T13:10:23;1.10;;;1.10;;
70981;SDS011;58640;51.320;9.456;2022-08-01T13:12:51;1.95;;;0.95;;
70981;SDS011;58640;51.320;9.456;2022-08-01T13:15:22;1.13;;;1.02;;
70981;SDS011;58640;51.320;9.456;2022-08-01T13:17:48;1.02;;;1.00;;
70981;SDS011;58640;51.320;9.456;2022-08-01T13:20:21;2.90;;;1.10;;
70981;SDS011;58640;51.320;9.456;2022-08-01T13:22:50;1.80;;;0.85;;
70981;SDS011;58640;51.320;9.456;2022-08-01T13:25:16;1.30;;;1.20;;
70981;SDS011;58640;51.320;9.456;2022-08-01T13:27:43;1.95;;;1.30;;
70981;SDS011;58640;51.320;9.456;2022-08-01T13:32:38;1.40;;;1.30;;
70981;SDS011;58640;51.320;9.456;2022-08-01T13:35:05;1.50;;;1.40;;
70981;SDS011;58640;51.320;9.456;2022-08-01T13:37:33;1.30;;;1.20;;
70981;SDS011;58640;51.320;9.456;2022-08-01T13:39:58;3.75;;;1.48;;
70981;SDS011;58640;51.320;9.456;2022-08-01T13:42:23;2.17;;;1.48;;
70981;SDS011;58640;51.320;9.456;2022-08-01T13:44:49;2.40;;;1.40;;
70981;SDS011;58640;51.320;9.456;2022-08-01T13:47:14;1.77;;;1.10;;
70981;SDS011;58640;51.320;9.456;2022-08-01T13:49:40;1.02;;;1.02;;
70981;SDS011;58640;51.320;9.456;2022-08-01T13:52:05;4.07;;;1.60;;
70981;SDS011;58640;51.320;9.456;2022-08-01T13:54:31;1.15;;;0.85;;
70981;SDS011;58640;51.320;9.456;2022-08-01T13:56:57;0.70;;;0.70;;
70981;SDS011;58640;51.320;9.456;2022-08-01T13:59:22;1.65;;;1.15;;
70981;SDS011;58640;51.320;9.456;2022-08-01T14:01:48;1.15;;;1.08;;
70981;SDS011;58640;51.320;9.456;2022-08-01T14:04:14;1.05;;;0.80;;
70981;SDS011;58640;51.320;9.456;2022-08-01T14:06:39;2.10;;;1.00;;
70981;SDS011;58640;51.320;9.456;2022-08-01T14:09:05;4.35;;;0.90;;
70981;SDS011;58640;51.320;9.456;2022-08-01T14:11:31;0.70;;;0.70;;
70981;SDS011;58640;51.320;9.456;2022-08-01T14:13:56;0.80;;;0.80;;
70981;SDS011;58640;51.320;9.456;2022-08-01T14:16:22;0.80;;;0.80;;
70981;SDS011;58640;51.320;9.456;2022-08-01T14:18:48;0.50;;;0.50;;
70981;SDS011;58640;51.320;9.456;2022-08-01T14:21:13;0.50;;;0.50;;
70981;SDS011;58640;51.320;9.456;2022-08-01T14:23:39;4.97;;;0.63;;
70981;SDS011;58640;51.320;9.456;2022-08-01T14:26:06;1.35;;;0.70;;
70981;SDS011;58640;51.320;9.456;2022-08-01T14:28:31;1.13;;;0.47;;
70981;SDS011;58640;51.320;9.456;2022-08-01T14:30:58;1.17;;;0.80;;
70981;SDS011;58640;51.320;9.456;2022-08-01T14:33:23;0.70;;;0.70;;
70981;SDS011;58640;51.320;9.456;2022-08-01T14:35:49;0.82;;;0.60;;
70981;SDS011;58640;51.320;9.456;2022-08-01T14:38:15;0.73;;;0.73;;
70981;SDS011;58640;51.320;9.456;2022-08-01T14:40:40;3.40;;;1.42;;
70981;SDS011;58640;51.320;9.456;2022-08-01T14:43:06;1.00;;;0.98;;
70981;SDS011;58640;51.320;9.456;2022-08-01T14:45:31;0.80;;;0.80;;
70981;SDS011;58640;51.320;9.456;2022-08-01T14:47:58;0.70;;;0.70;;
70981;SDS011;58640;51.320;9.456;2022-08-01T14:50:24;2.15;;;0.50;;
70981;SDS011;58640;51.320;9.456;2022-08-01T14:52:51;0.80;;;0.80;;
70981;SDS011;58640;51.320;9.456;2022-08-01T14:55:17;0.95;;;0.85;;
70981;SDS011;58640;51.320;9.456;2022-08-01T14:57:46;0.98;;;0.70;;
70981;SDS011;58640;51.320;9.456;2022-08-01T15:00:11;0.80;;;0.80;;
70981;SDS011;58640;51.320;9.456;2022-08-01T15:02:40;0.90;;;0.73;;
70981;SDS011;58640;51.320;9.456;2022-08-01T15:05:06;0.57;;;0.57;;
70981;SDS011;58640;51.320;9.456;2022-08-01T15:07:32;0.50;;;0.50;;
70981;SDS011;58640;51.320;9.456;2022-08-01T15:09:57;0.70;;;0.70;;
70981;SDS011;58640;51.320;9.456;2022-08-01T15:12:23;1.08;;;0.60;;
70981;SDS011;58640;51.320;9.456;2022-08-01T15:14:48;0.50;;;0.50;;
70981;SDS011;58640;51.320;9.456;2022-08-01T15:17:24;0.75;;;0.75;;
70981;SDS011;58640;51.320;9.456;2022-08-01T15:19:52;0.70;;;0.70;;
70981;SDS011;58640;51.320;9.456;2022-08-01T15:22:19;0.80;;;0.80;;
70981;SDS011;58640;51.320;9.456;2022-08-01T15:24:46;0.88;;;0.88;;
70981;SDS011;58640;51.320;9.456;2022-08-01T15:27:12;4.88;;;0.60;;
70981;SDS011;58640;51.320;9.456;2022-08-01T15:29:38;0.82;;;0.52;;
70981;SDS011;58640;51.320;9.456;2022-08-01T15:32:04;0.45;;;0.45;;
70981;SDS011;58640;51.320;9.456;2022-08-01T15:34:31;0.50;;;0.50;;
70981;SDS011;58640;51.320;9.456;2022-08-01T15:36:57;0.77;;;0.77;;
70981;SDS011;58640;51.320;9.456;2022-08-01T15:39:23;2.03;;;0.47;;